WXM80 ListenWXM80 Stop

You find our weather info also at:

UK Metoffice

WeatherCloud

Weather Underground

Northeastern Weather Network

AWEKAS

Citizen Weather Observer Program (CWOP)

HAMweather, WeatherForYou, PWS Weather


Weather Underground History page Text

Daily Summary for May 28, 2017 Units:  Both    English   Metric
« Previous Day
Next Day »
Daily Weekly Monthly Yearly Custom
  High: Low: Average:
Temperature: 72.8 °F /  22.7 °C 57.4 °F /  14.1 °C 63.8 °F /  17.7 °C
Dew Point: 63.9 °F /  17.7 °C 51.6 °F /  10.9 °C 56.6 °F /  13.7 °C
Humidity: 95 % 58 % 78 %
Wind Speed: 6.3 mph /  10.1 km/h - 1.3 mph /  2.1 km/h
Wind Gust: 11.5 mph /  18.5 km/h - -
Wind:- - SE
Pressure: 29.93 in /  1013.4 hPa 29.85 in /  1010.7 hPa -
Precipitation: 0.00 in /  0 mm    
Historical Graphs
 
 
Tabular Data for May 28, 2017
Time Temperature Dew Point Pressure Wind Wind Speed Wind Gust Humidity Rainfall Rate (Hourly)
00:04 60.9 °F /  16.1 °C 57.3 °F /  14.1 °C 29.89 in /  1012.1 hPa South 0.6 mph /  1 km/h 2.0 mph /  3.2 km/h 88 % 0.00 in /  0 mm
00:09 60.9 °F /  16.1 °C 57.3 °F /  14.1 °C 29.89 in /  1012.1 hPa Calm     88 % 0.00 in /  0 mm
00:14 60.9 °F /  16.1 °C 57.3 °F /  14.1 °C 29.88 in /  1011.7 hPa SE 0.1 mph /  0.2 km/h   88 % 0.00 in /  0 mm
00:19 60.9 °F /  16.1 °C 57.3 °F /  14.1 °C 29.88 in /  1011.7 hPa SE 0.6 mph /  1 km/h 2.3 mph /  3.7 km/h 88 % 0.00 in /  0 mm
00:24 60.8 °F /  16 °C 57.2 °F /  14 °C 29.88 in /  1011.7 hPa SE 0.2 mph /  0.3 km/h 1.0 mph /  1.6 km/h 88 % 0.00 in /  0 mm
00:29 60.8 °F /  16 °C 57.2 °F /  14 °C 29.87 in /  1011.4 hPa SE 1.0 mph /  1.6 km/h 4.6 mph /  7.4 km/h 88 % 0.00 in /  0 mm
00:34 60.8 °F /  16 °C 57.2 °F /  14 °C 29.87 in /  1011.4 hPa SE 0.9 mph /  1.4 km/h 4.0 mph /  6.4 km/h 88 % 0.00 in /  0 mm
00:39 60.7 °F /  15.9 °C 57.1 °F /  13.9 °C 29.87 in /  1011.4 hPa SE 0.2 mph /  0.3 km/h 1.2 mph /  1.9 km/h 88 % 0.00 in /  0 mm
00:45 60.7 °F /  15.9 °C 57.1 °F /  13.9 °C 29.87 in /  1011.4 hPa Calm     88 % 0.00 in /  0 mm
00:50 60.6 °F /  15.9 °C 57.0 °F /  13.9 °C 29.87 in /  1011.4 hPa Calm     88 % 0.00 in /  0 mm
00:55 60.6 °F /  15.9 °C 57.0 °F /  13.9 °C 29.88 in /  1011.7 hPa Calm   2.3 mph /  3.7 km/h 88 % 0.00 in /  0 mm
01:00 60.5 °F /  15.8 °C 56.9 °F /  13.8 °C 29.88 in /  1011.7 hPa SE 0.4 mph /  0.6 km/h 3.5 mph /  5.6 km/h 88 % 0.00 in /  0 mm
01:05 60.5 °F /  15.8 °C 56.9 °F /  13.8 °C 29.88 in /  1011.7 hPa Calm   1.0 mph /  1.6 km/h 88 % 0.00 in /  0 mm
01:10 60.5 °F /  15.8 °C 56.9 °F /  13.8 °C 29.88 in /  1011.7 hPa Calm     88 % 0.00 in /  0 mm
01:15 60.5 °F /  15.8 °C 56.9 °F /  13.8 °C 29.88 in /  1011.7 hPa Calm     88 % 0.00 in /  0 mm
01:20 60.4 °F /  15.8 °C 57.1 °F /  13.9 °C 29.88 in /  1011.7 hPa Calm     89 % 0.00 in /  0 mm
01:25 60.4 °F /  15.8 °C 57.1 °F /  13.9 °C 29.88 in /  1011.7 hPa Calm   2.3 mph /  3.7 km/h 89 % 0.00 in /  0 mm
01:30 60.4 °F /  15.8 °C 57.1 °F /  13.9 °C 29.88 in /  1011.7 hPa Calm   1.2 mph /  1.9 km/h 89 % 0.00 in /  0 mm
01:35 60.4 °F /  15.8 °C 57.1 °F /  13.9 °C 29.88 in /  1011.7 hPa Calm     89 % 0.00 in /  0 mm
01:40 60.3 °F /  15.7 °C 57.0 °F /  13.9 °C 29.88 in /  1011.7 hPa Calm     89 % 0.00 in /  0 mm
01:45 60.3 °F /  15.7 °C 57.0 °F /  13.9 °C 29.88 in /  1011.7 hPa Calm     89 % 0.00 in /  0 mm
01:50 60.3 °F /  15.7 °C 57.0 °F /  13.9 °C 29.88 in /  1011.7 hPa Calm   1.2 mph /  1.9 km/h 89 % 0.00 in /  0 mm
01:55 60.2 °F /  15.7 °C 56.9 °F /  13.8 °C 29.87 in /  1011.4 hPa Calm     89 % 0.00 in /  0 mm
02:00 60.2 °F /  15.7 °C 56.9 °F /  13.8 °C 29.88 in /  1011.7 hPa Calm     89 % 0.00 in /  0 mm
02:05 60.2 °F /  15.7 °C 56.9 °F /  13.8 °C 29.88 in /  1011.7 hPa Calm     89 % 0.00 in /  0 mm
02:10 60.1 °F /  15.6 °C 56.8 °F /  13.8 °C 29.87 in /  1011.4 hPa Calm     89 % 0.00 in /  0 mm
02:15 60.1 °F /  15.6 °C 57.2 °F /  14 °C 29.88 in /  1011.7 hPa Calm     90 % 0.00 in /  0 mm
02:20 60.1 °F /  15.6 °C 57.2 °F /  14 °C 29.88 in /  1011.7 hPa Calm     90 % 0.00 in /  0 mm
02:25 60.0 °F /  15.6 °C 57.1 °F /  13.9 °C 29.88 in /  1011.7 hPa Calm     90 % 0.00 in /  0 mm
02:30 60.0 °F /  15.6 °C 57.1 °F /  13.9 °C 29.88 in /  1011.7 hPa Calm     90 % 0.00 in /  0 mm
02:35 60.0 °F /  15.6 °C 57.1 °F /  13.9 °C 29.88 in /  1011.7 hPa Calm     90 % 0.00 in /  0 mm
02:40 59.9 °F /  15.5 °C 57.0 °F /  13.9 °C 29.89 in /  1012.1 hPa East 1.7 mph /  2.7 km/h 3.5 mph /  5.6 km/h 90 % 0.00 in /  0 mm
02:45 59.9 °F /  15.5 °C 57.0 °F /  13.9 °C 29.89 in /  1012.1 hPa Calm     90 % 0.00 in /  0 mm
02:50 59.9 °F /  15.5 °C 57.0 °F /  13.9 °C 29.89 in /  1012.1 hPa Calm     90 % 0.00 in /  0 mm
02:55 59.8 °F /  15.4 °C 56.9 °F /  13.8 °C 29.89 in /  1012.1 hPa Calm     90 % 0.00 in /  0 mm
03:00 59.8 °F /  15.4 °C 56.9 °F /  13.8 °C 29.88 in /  1011.7 hPa SE 0.4 mph /  0.6 km/h 3.5 mph /  5.6 km/h 90 % 0.00 in /  0 mm
03:05 59.8 °F /  15.4 °C 56.9 °F /  13.8 °C 29.88 in /  1011.7 hPa SE 0.5 mph /  0.8 km/h 2.3 mph /  3.7 km/h 90 % 0.00 in /  0 mm
03:10 59.8 °F /  15.4 °C 56.9 °F /  13.8 °C 29.88 in /  1011.7 hPa SE 0.7 mph /  1.1 km/h 4.0 mph /  6.4 km/h 90 % 0.00 in /  0 mm
03:15 59.7 °F /  15.4 °C 56.8 °F /  13.8 °C 29.87 in /  1011.4 hPa Calm     90 % 0.00 in /  0 mm
03:20 59.7 °F /  15.4 °C 56.8 °F /  13.8 °C 29.87 in /  1011.4 hPa Calm     90 % 0.00 in /  0 mm
03:25 59.6 °F /  15.3 °C 56.7 °F /  13.7 °C 29.87 in /  1011.4 hPa Calm     90 % 0.00 in /  0 mm
03:28 59.6 °F /  15.3 °C 56.7 °F /  13.7 °C 29.86 in /  1011.1 hPa Calm     90 % 0.00 in /  0 mm
03:33 59.6 °F /  15.3 °C 56.7 °F /  13.7 °C 29.86 in /  1011.1 hPa Calm   1.0 mph /  1.6 km/h 90 % 0.00 in /  0 mm
03:38 59.5 °F /  15.3 °C 56.6 °F /  13.7 °C 29.86 in /  1011.1 hPa Calm     90 % 0.00 in /  0 mm
03:43 59.5 °F /  15.3 °C 56.9 °F /  13.8 °C 29.86 in /  1011.1 hPa Calm     91 % 0.00 in /  0 mm
03:48 59.4 °F /  15.2 °C 56.8 °F /  13.8 °C 29.86 in /  1011.1 hPa Calm   2.3 mph /  3.7 km/h 91 % 0.00 in /  0 mm
03:53 59.3 °F /  15.2 °C 56.7 °F /  13.7 °C 29.86 in /  1011.1 hPa SE 0.4 mph /  0.6 km/h 2.0 mph /  3.2 km/h 91 % 0.00 in /  0 mm
03:58 59.3 °F /  15.2 °C 56.7 °F /  13.7 °C 29.86 in /  1011.1 hPa Calm     91 % 0.00 in /  0 mm
04:03 59.2 °F /  15.1 °C 56.6 °F /  13.7 °C 29.86 in /  1011.1 hPa SE 0.1 mph /  0.2 km/h 3.5 mph /  5.6 km/h 91 % 0.00 in /  0 mm
04:08 59.1 °F /  15.1 °C 56.5 °F /  13.6 °C 29.86 in /  1011.1 hPa Calm     91 % 0.00 in /  0 mm
04:13 59.0 °F /  15 °C 56.4 °F /  13.6 °C 29.86 in /  1011.1 hPa Calm     91 % 0.00 in /  0 mm
04:18 59.0 °F /  15 °C 56.4 °F /  13.6 °C 29.86 in /  1011.1 hPa Calm     91 % 0.00 in /  0 mm
04:24 58.9 °F /  14.9 °C 56.3 °F /  13.5 °C 29.85 in /  1010.7 hPa Calm     91 % 0.00 in /  0 mm
04:29 58.8 °F /  14.9 °C 56.2 °F /  13.4 °C 29.85 in /  1010.7 hPa Calm     91 % 0.00 in /  0 mm
04:34 58.7 °F /  14.8 °C 56.1 °F /  13.4 °C 29.85 in /  1010.7 hPa Calm     91 % 0.00 in /  0 mm
04:39 58.6 °F /  14.8 °C 56.0 °F /  13.3 °C 29.85 in /  1010.7 hPa Calm   1.2 mph /  1.9 km/h 91 % 0.00 in /  0 mm
04:44 58.5 °F /  14.7 °C 55.9 °F /  13.3 °C 29.86 in /  1011.1 hPa Calm     91 % 0.00 in /  0 mm
04:50 58.4 °F /  14.7 °C 55.8 °F /  13.2 °C 29.87 in /  1011.4 hPa Calm     91 % 0.00 in /  0 mm
04:55 58.3 °F /  14.6 °C 55.7 °F /  13.2 °C 29.88 in /  1011.7 hPa Calm   1.2 mph /  1.9 km/h 91 % 0.00 in /  0 mm
05:00 58.2 °F /  14.6 °C 55.6 °F /  13.1 °C 29.88 in /  1011.7 hPa Calm     91 % 0.00 in /  0 mm
05:05 58.2 °F /  14.6 °C 55.6 °F /  13.1 °C 29.88 in /  1011.7 hPa SSE 1.0 mph /  1.6 km/h 2.3 mph /  3.7 km/h 91 % 0.00 in /  0 mm
05:10 58.1 °F /  14.5 °C 55.5 °F /  13.1 °C 29.89 in /  1012.1 hPa Calm     91 % 0.00 in /  0 mm
05:15 58.0 °F /  14.4 °C 55.4 °F /  13 °C 29.88 in /  1011.7 hPa Calm   1.2 mph /  1.9 km/h 91 % 0.00 in /  0 mm
05:20 58.0 °F /  14.4 °C 55.4 °F /  13 °C 29.89 in /  1012.1 hPa SSE 0.3 mph /  0.5 km/h 2.3 mph /  3.7 km/h 91 % 0.00 in /  0 mm
05:25 58.0 °F /  14.4 °C 55.7 °F /  13.2 °C 29.88 in /  1011.7 hPa Calm     92 % 0.00 in /  0 mm
05:30 58.0 °F /  14.4 °C 55.7 °F /  13.2 °C 29.88 in /  1011.7 hPa Calm     92 % 0.00 in /  0 mm
05:35 57.9 °F /  14.4 °C 55.6 °F /  13.1 °C 29.88 in /  1011.7 hPa Calm     92 % 0.00 in /  0 mm
05:40 57.9 °F /  14.4 °C 55.6 °F /  13.1 °C 29.88 in /  1011.7 hPa Calm     92 % 0.00 in /  0 mm
05:45 57.8 °F /  14.3 °C 55.5 °F /  13.1 °C 29.88 in /  1011.7 hPa Calm     92 % 0.00 in /  0 mm
05:50 57.7 °F /  14.3 °C 55.4 °F /  13 °C 29.88 in /  1011.7 hPa Calm     92 % 0.00 in /  0 mm
05:55 57.7 °F /  14.3 °C 55.4 °F /  13 °C 29.88 in /  1011.7 hPa Calm     92 % 0.00 in /  0 mm
06:01 57.6 °F /  14.2 °C 55.3 °F /  12.9 °C 29.88 in /  1011.7 hPa Calm     92 % 0.00 in /  0 mm
06:06 57.5 °F /  14.2 °C 55.2 °F /  12.9 °C 29.88 in /  1011.7 hPa Calm     92 % 0.00 in /  0 mm
06:11 57.4 °F /  14.1 °C 55.1 °F /  12.8 °C 29.88 in /  1011.7 hPa Calm     92 % 0.00 in /  0 mm
06:16 57.4 °F /  14.1 °C 55.1 °F /  12.8 °C 29.89 in /  1012.1 hPa Calm     92 % 0.00 in /  0 mm
06:21 57.4 °F /  14.1 °C 55.1 °F /  12.8 °C 29.89 in /  1012.1 hPa Calm     92 % 0.00 in /  0 mm
06:26 57.4 °F /  14.1 °C 55.1 °F /  12.8 °C 29.89 in /  1012.1 hPa Calm     92 % 0.00 in /  0 mm
06:31 57.5 °F /  14.2 °C 55.5 °F /  13.1 °C 29.89 in /  1012.1 hPa Calm     93 % 0.00 in /  0 mm
06:36 58.0 °F /  14.4 °C 56.3 °F /  13.5 °C 29.89 in /  1012.1 hPa Calm     94 % 0.00 in /  0 mm
06:41 58.5 °F /  14.7 °C 57.0 °F /  13.9 °C 29.89 in /  1012.1 hPa Calm     95 % 0.00 in /  0 mm
06:46 58.9 °F /  14.9 °C 57.5 °F /  14.2 °C 29.89 in /  1012.1 hPa Calm   2.0 mph /  3.2 km/h 95 % 0.00 in /  0 mm
06:51 59.2 °F /  15.1 °C 57.7 °F /  14.3 °C 29.90 in /  1012.4 hPa Calm     95 % 0.00 in /  0 mm
06:56 59.7 °F /  15.4 °C 58.2 °F /  14.6 °C 29.90 in /  1012.4 hPa Calm   1.0 mph /  1.6 km/h 95 % 0.00 in /  0 mm
07:01 60.0 °F /  15.6 °C 58.6 °F /  14.8 °C 29.90 in /  1012.4 hPa SE 1.0 mph /  1.6 km/h 4.0 mph /  6.4 km/h 95 % 0.00 in /  0 mm
07:06 60.1 °F /  15.6 °C 58.4 °F /  14.7 °C 29.90 in /  1012.4 hPa Calm   1.2 mph /  1.9 km/h 94 % 0.00 in /  0 mm
07:11 60.5 °F /  15.8 °C 58.2 °F /  14.6 °C 29.90 in /  1012.4 hPa Calm   2.3 mph /  3.7 km/h 92 % 0.00 in /  0 mm
07:16 60.9 °F /  16.1 °C 58.6 °F /  14.8 °C 29.90 in /  1012.4 hPa Calm     92 % 0.00 in /  0 mm
07:21 61.3 °F /  16.3 °C 58.3 °F /  14.6 °C 29.91 in /  1012.8 hPa SE 0.2 mph /  0.3 km/h 1.2 mph /  1.9 km/h 90 % 0.00 in /  0 mm
07:26 61.7 °F /  16.5 °C 58.4 °F /  14.7 °C 29.91 in /  1012.8 hPa Calm   1.2 mph /  1.9 km/h 89 % 0.00 in /  0 mm
07:31 62.1 °F /  16.7 °C 58.8 °F /  14.9 °C 29.91 in /  1012.8 hPa SW 1.5 mph /  2.4 km/h 3.5 mph /  5.6 km/h 89 % 0.00 in /  0 mm
07:36 62.4 °F /  16.9 °C 58.5 °F /  14.7 °C 29.91 in /  1012.8 hPa Calm     87 % 0.00 in /  0 mm
07:41 62.7 °F /  17.1 °C 58.5 °F /  14.7 °C 29.91 in /  1012.8 hPa SW 0.9 mph /  1.4 km/h 2.3 mph /  3.7 km/h 86 % 0.00 in /  0 mm
07:46 62.9 °F /  17.2 °C 59.0 °F /  15 °C 29.91 in /  1012.8 hPa SW 1.5 mph /  2.4 km/h 3.5 mph /  5.6 km/h 87 % 0.00 in /  0 mm
07:51 63.0 °F /  17.2 °C 59.4 °F /  15.2 °C 29.91 in /  1012.8 hPa Calm     88 % 0.00 in /  0 mm
07:56 63.2 °F /  17.3 °C 59.9 °F /  15.5 °C 29.91 in /  1012.8 hPa NNE 0.3 mph /  0.5 km/h 2.3 mph /  3.7 km/h 89 % 0.00 in /  0 mm
08:01 63.4 °F /  17.4 °C 59.8 °F /  15.4 °C 29.92 in /  1013.1 hPa NNE 0.1 mph /  0.2 km/h 2.3 mph /  3.7 km/h 88 % 0.00 in /  0 mm
08:06 63.4 °F /  17.4 °C 59.5 °F /  15.3 °C 29.92 in /  1013.1 hPa NNE 1.9 mph /  3.1 km/h 3.5 mph /  5.6 km/h 87 % 0.00 in /  0 mm
08:11 63.5 °F /  17.5 °C 59.6 °F /  15.3 °C 29.92 in /  1013.1 hPa NNE 1.3 mph /  2.1 km/h 2.3 mph /  3.7 km/h 87 % 0.00 in /  0 mm
08:16 63.7 °F /  17.6 °C 59.8 °F /  15.4 °C 29.92 in /  1013.1 hPa NNE 1.1 mph /  1.8 km/h 2.3 mph /  3.7 km/h 87 % 0.00 in /  0 mm
08:21 63.7 °F /  17.6 °C 59.4 °F /  15.2 °C 29.91 in /  1012.8 hPa NE 1.6 mph /  2.6 km/h 4.0 mph /  6.4 km/h 86 % 0.00 in /  0 mm
08:27 63.8 °F /  17.7 °C 59.5 °F /  15.3 °C 29.92 in /  1013.1 hPa NNE 0.8 mph /  1.3 km/h 3.5 mph /  5.6 km/h 86 % 0.00 in /  0 mm
08:32 63.8 °F /  17.7 °C 59.5 °F /  15.3 °C 29.92 in /  1013.1 hPa North 2.6 mph /  4.2 km/h 4.6 mph /  7.4 km/h 86 % 0.00 in /  0 mm
08:37 63.7 °F /  17.6 °C 59.4 °F /  15.2 °C 29.92 in /  1013.1 hPa NNE 0.3 mph /  0.5 km/h 2.3 mph /  3.7 km/h 86 % 0.00 in /  0 mm
08:42 63.7 °F /  17.6 °C 59.4 °F /  15.2 °C 29.92 in /  1013.1 hPa North 1.9 mph /  3.1 km/h 4.0 mph /  6.4 km/h 86 % 0.00 in /  0 mm
08:47 63.5 °F /  17.5 °C 59.2 °F /  15.1 °C 29.91 in /  1012.8 hPa North 3.2 mph /  5.1 km/h 5.8 mph /  9.3 km/h 86 % 0.00 in /  0 mm
08:52 63.4 °F /  17.4 °C 59.1 °F /  15.1 °C 29.91 in /  1012.8 hPa North 1.5 mph /  2.4 km/h 4.0 mph /  6.4 km/h 86 % 0.00 in /  0 mm
08:57 63.3 °F /  17.4 °C 59.0 °F /  15 °C 29.92 in /  1013.1 hPa North 3.5 mph /  5.6 km/h 5.8 mph /  9.3 km/h 86 % 0.00 in /  0 mm
09:02 63.3 °F /  17.4 °C 59.4 °F /  15.2 °C 29.92 in /  1013.1 hPa ENE 4.6 mph /  7.4 km/h 6.9 mph /  11.1 km/h 87 % 0.00 in /  0 mm
09:07 63.3 °F /  17.4 °C 59.4 °F /  15.2 °C 29.92 in /  1013.1 hPa NNE 2.4 mph /  3.9 km/h 4.6 mph /  7.4 km/h 87 % 0.00 in /  0 mm
09:12 63.4 °F /  17.4 °C 59.5 °F /  15.3 °C 29.91 in /  1012.8 hPa ENE 2.8 mph /  4.5 km/h 4.6 mph /  7.4 km/h 87 % 0.00 in /  0 mm
09:17 63.5 °F /  17.5 °C 59.6 °F /  15.3 °C 29.91 in /  1012.8 hPa North 2.7 mph /  4.3 km/h 5.8 mph /  9.3 km/h 87 % 0.00 in /  0 mm
09:23 63.6 °F /  17.6 °C 59.3 °F /  15.2 °C 29.91 in /  1012.8 hPa ENE 2.6 mph /  4.2 km/h 4.6 mph /  7.4 km/h 86 % 0.00 in /  0 mm
09:28 63.4 °F /  17.4 °C 59.1 °F /  15.1 °C 29.91 in /  1012.8 hPa ENE 3.1 mph /  5 km/h 5.8 mph /  9.3 km/h 86 % 0.00 in /  0 mm
09:33 63.4 °F /  17.4 °C 59.1 °F /  15.1 °C 29.91 in /  1012.8 hPa NE 5.3 mph /  8.5 km/h 9.2 mph /  14.8 km/h 86 % 0.00 in /  0 mm
09:38 63.6 °F /  17.6 °C 59.7 °F /  15.4 °C 29.91 in /  1012.8 hPa North 3.1 mph /  5 km/h 5.0 mph /  8 km/h 87 % 0.00 in /  0 mm
09:43 64.0 °F /  17.8 °C 59.7 °F /  15.4 °C 29.91 in /  1012.8 hPa NNE 2.2 mph /  3.5 km/h 4.6 mph /  7.4 km/h 86 % 0.00 in /  0 mm
09:48 64.4 °F /  18 °C 59.8 °F /  15.4 °C 29.91 in /  1012.8 hPa NNE 4.2 mph /  6.8 km/h 5.8 mph /  9.3 km/h 85 % 0.00 in /  0 mm
09:53 64.9 °F /  18.3 °C 60.3 °F /  15.7 °C 29.91 in /  1012.8 hPa NNE 3.0 mph /  4.8 km/h 8.1 mph /  13 km/h 85 % 0.00 in /  0 mm
09:58 65.5 °F /  18.6 °C 60.5 °F /  15.8 °C 29.91 in /  1012.8 hPa North 4.9 mph /  7.9 km/h 7.0 mph /  11.3 km/h 84 % 0.00 in /  0 mm
10:03 66.3 °F /  19.1 °C 61.3 °F /  16.3 °C 29.91 in /  1012.8 hPa NNE 1.9 mph /  3.1 km/h 5.8 mph /  9.3 km/h 84 % 0.00 in /  0 mm
10:08 67.0 °F /  19.4 °C 61.3 °F /  16.3 °C 29.90 in /  1012.4 hPa NE 1.4 mph /  2.3 km/h 4.6 mph /  7.4 km/h 82 % 0.00 in /  0 mm
10:13 67.6 °F /  19.8 °C 61.6 °F /  16.4 °C 29.90 in /  1012.4 hPa NE 3.2 mph /  5.1 km/h 3.5 mph /  5.6 km/h 81 % 0.00 in /  0 mm
10:18 67.9 °F /  19.9 °C 61.1 °F /  16.2 °C 29.90 in /  1012.4 hPa NE 2.7 mph /  4.3 km/h 4.6 mph /  7.4 km/h 79 % 0.00 in /  0 mm
10:23 68.3 °F /  20.2 °C 61.9 °F /  16.6 °C 29.90 in /  1012.4 hPa ENE 3.0 mph /  4.8 km/h 4.6 mph /  7.4 km/h 80 % 0.00 in /  0 mm
10:28 68.3 °F /  20.2 °C 60.8 °F /  16 °C 29.90 in /  1012.4 hPa ENE 1.6 mph /  2.6 km/h 4.6 mph /  7.4 km/h 77 % 0.00 in /  0 mm
10:33 68.5 °F /  20.3 °C 61.7 °F /  16.5 °C 29.90 in /  1012.4 hPa ENE 2.2 mph /  3.5 km/h 4.6 mph /  7.4 km/h 79 % 0.00 in /  0 mm
10:38 68.8 °F /  20.4 °C 61.7 °F /  16.5 °C 29.91 in /  1012.8 hPa ENE 2.0 mph /  3.2 km/h 7.0 mph /  11.3 km/h 78 % 0.00 in /  0 mm
10:43 68.6 °F /  20.3 °C 60.7 °F /  15.9 °C 29.90 in /  1012.4 hPa ENE 4.7 mph /  7.6 km/h 8.1 mph /  13 km/h 76 % 0.00 in /  0 mm
10:48 68.3 °F /  20.2 °C 61.2 °F /  16.2 °C 29.90 in /  1012.4 hPa NNE 4.1 mph /  6.6 km/h 6.9 mph /  11.1 km/h 78 % 0.00 in /  0 mm
10:53 68.7 °F /  20.4 °C 62.3 °F /  16.8 °C 29.90 in /  1012.4 hPa NE 1.7 mph /  2.7 km/h 3.5 mph /  5.6 km/h 80 % 0.00 in /  0 mm
10:58 69.2 °F /  20.7 °C 62.0 °F /  16.7 °C 29.90 in /  1012.4 hPa ENE 1.7 mph /  2.7 km/h 5.0 mph /  8 km/h 78 % 0.00 in /  0 mm
11:03 69.5 °F /  20.8 °C 62.3 °F /  16.8 °C 29.91 in /  1012.8 hPa North 4.1 mph /  6.6 km/h 5.8 mph /  9.3 km/h 78 % 0.00 in /  0 mm
11:08 69.9 °F /  21.1 °C 62.4 °F /  16.9 °C 29.91 in /  1012.8 hPa ESE 1.8 mph /  2.9 km/h 6.0 mph /  9.7 km/h 77 % 0.00 in /  0 mm
11:13 70.2 °F /  21.2 °C 61.1 °F /  16.2 °C 29.91 in /  1012.8 hPa SSE 4.6 mph /  7.4 km/h 8.1 mph /  13 km/h 73 % 0.00 in /  0 mm
11:18 70.7 °F /  21.5 °C 61.6 °F /  16.4 °C 29.91 in /  1012.8 hPa SSE 3.1 mph /  5 km/h 10.4 mph /  16.7 km/h 73 % 0.00 in /  0 mm
11:23 71.0 °F /  21.7 °C 61.1 °F /  16.2 °C 29.90 in /  1012.4 hPa SSE 5.2 mph /  8.4 km/h 7.0 mph /  11.3 km/h 71 % 0.00 in /  0 mm
11:28 71.2 °F /  21.8 °C 62.5 °F /  16.9 °C 29.90 in /  1012.4 hPa SE 1.0 mph /  1.6 km/h 3.5 mph /  5.6 km/h 74 % 0.00 in /  0 mm
11:33 71.6 °F /  22 °C 63.3 °F /  17.4 °C 29.91 in /  1012.8 hPa South 0.7 mph /  1.1 km/h 2.3 mph /  3.7 km/h 75 % 0.00 in /  0 mm
11:38 72.3 °F /  22.4 °C 63.9 °F /  17.7 °C 29.91 in /  1012.8 hPa SSE 0.4 mph /  0.6 km/h 2.3 mph /  3.7 km/h 75 % 0.00 in /  0 mm
11:43 72.8 °F /  22.7 °C 62.0 °F /  16.7 °C 29.91 in /  1012.8 hPa SSE 4.4 mph /  7.1 km/h 9.0 mph /  14.5 km/h 69 % 0.00 in /  0 mm
11:49 72.8 °F /  22.7 °C 63.6 °F /  17.6 °C 29.91 in /  1012.8 hPa SE 4.0 mph /  6.4 km/h 5.0 mph /  8 km/h 73 % 0.00 in /  0 mm
11:54 72.7 °F /  22.6 °C 61.1 °F /  16.2 °C 29.92 in /  1013.1 hPa SE 6.3 mph /  10.1 km/h 8.1 mph /  13 km/h 67 % 0.00 in /  0 mm
11:59 72.1 °F /  22.3 °C 60.1 °F /  15.6 °C 29.92 in /  1013.1 hPa SE 3.6 mph /  5.8 km/h 9.2 mph /  14.8 km/h 66 % 0.00 in /  0 mm
12:04 72.0 °F /  22.2 °C 61.3 °F /  16.3 °C 29.92 in /  1013.1 hPa SSE 2.5 mph /  4 km/h 4.0 mph /  6.4 km/h 69 % 0.00 in /  0 mm
12:09 72.1 °F /  22.3 °C 61.0 °F /  16.1 °C 29.92 in /  1013.1 hPa South 1.7 mph /  2.7 km/h 5.8 mph /  9.3 km/h 68 % 0.00 in /  0 mm
12:14 72.3 °F /  22.4 °C 61.6 °F /  16.4 °C 29.92 in /  1013.1 hPa SSW 1.0 mph /  1.6 km/h 3.5 mph /  5.6 km/h 69 % 0.00 in /  0 mm
12:19 72.4 °F /  22.4 °C 60.0 °F /  15.6 °C 29.93 in /  1013.4 hPa SE 4.0 mph /  6.4 km/h 8.0 mph /  12.9 km/h 65 % 0.00 in /  0 mm
12:24 72.2 °F /  22.3 °C 59.8 °F /  15.4 °C 29.92 in /  1013.1 hPa WSW 1.3 mph /  2.1 km/h 4.6 mph /  7.4 km/h 65 % 0.00 in /  0 mm
12:29 71.9 °F /  22.2 °C 60.3 °F /  15.7 °C 29.93 in /  1013.4 hPa SSE 3.7 mph /  6 km/h 6.9 mph /  11.1 km/h 67 % 0.00 in /  0 mm
12:34 71.6 °F /  22 °C 59.6 °F /  15.3 °C 29.93 in /  1013.4 hPa SSE 1.7 mph /  2.7 km/h 8.1 mph /  13 km/h 66 % 0.00 in /  0 mm
12:39 71.3 °F /  21.8 °C 59.4 °F /  15.2 °C 29.93 in /  1013.4 hPa SE 4.0 mph /  6.4 km/h 6.9 mph /  11.1 km/h 66 % 0.00 in /  0 mm
12:44 71.5 °F /  21.9 °C 61.2 °F /  16.2 °C 29.93 in /  1013.4 hPa SE 3.8 mph /  6.1 km/h 8.1 mph /  13 km/h 70 % 0.00 in /  0 mm
12:49 71.4 °F /  21.9 °C 59.4 °F /  15.2 °C 29.93 in /  1013.4 hPa ESE 1.2 mph /  1.9 km/h 4.6 mph /  7.4 km/h 66 % 0.00 in /  0 mm
12:54 71.6 °F /  22 °C 59.6 °F /  15.3 °C 29.93 in /  1013.4 hPa SE 5.1 mph /  8.2 km/h 8.1 mph /  13 km/h 66 % 0.00 in /  0 mm
12:59 71.6 °F /  22 °C 61.3 °F /  16.3 °C 29.93 in /  1013.4 hPa ESE 0.6 mph /  1 km/h 3.5 mph /  5.6 km/h 70 % 0.00 in /  0 mm
13:04 72.0 °F /  22.2 °C 61.3 °F /  16.3 °C 29.93 in /  1013.4 hPa SSE 0.7 mph /  1.1 km/h 4.0 mph /  6.4 km/h 69 % 0.00 in /  0 mm
13:09 72.2 °F /  22.3 °C 60.2 °F /  15.7 °C 29.93 in /  1013.4 hPa SE 0.4 mph /  0.6 km/h 4.6 mph /  7.4 km/h 66 % 0.00 in /  0 mm
13:14 72.3 °F /  22.4 °C 60.3 °F /  15.7 °C 29.93 in /  1013.4 hPa SE 2.3 mph /  3.7 km/h 4.0 mph /  6.4 km/h 66 % 0.00 in /  0 mm
13:19 72.4 °F /  22.4 °C 60.0 °F /  15.6 °C 29.93 in /  1013.4 hPa SSE 1.4 mph /  2.3 km/h 3.5 mph /  5.6 km/h 65 % 0.00 in /  0 mm
13:24 72.3 °F /  22.4 °C 60.3 °F /  15.7 °C 29.93 in /  1013.4 hPa SE 2.6 mph /  4.2 km/h 6.0 mph /  9.7 km/h 66 % 0.00 in /  0 mm
13:29 72.4 °F /  22.4 °C 61.7 °F /  16.5 °C 29.93 in /  1013.4 hPa South 0.3 mph /  0.5 km/h 3.5 mph /  5.6 km/h 69 % 0.00 in /  0 mm
13:34 72.4 °F /  22.4 °C 60.4 °F /  15.8 °C 29.93 in /  1013.4 hPa SE 0.4 mph /  0.6 km/h 4.6 mph /  7.4 km/h 66 % 0.00 in /  0 mm
13:39 72.4 °F /  22.4 °C 60.4 °F /  15.8 °C 29.93 in /  1013.4 hPa SE 1.6 mph /  2.6 km/h 4.6 mph /  7.4 km/h 66 % 0.00 in /  0 mm
13:44 72.3 °F /  22.4 °C 59.0 °F /  15 °C 29.93 in /  1013.4 hPa SE 5.1 mph /  8.2 km/h 10.4 mph /  16.7 km/h 63 % 0.00 in /  0 mm
13:50 72.2 °F /  22.3 °C 61.0 °F /  16.1 °C 29.93 in /  1013.4 hPa ESE 0.1 mph /  0.2 km/h 5.8 mph /  9.3 km/h 68 % 0.00 in /  0 mm
13:55 72.1 °F /  22.3 °C 60.1 °F /  15.6 °C 29.93 in /  1013.4 hPa South 3.3 mph /  5.3 km/h 11.0 mph /  17.7 km/h 66 % 0.00 in /  0 mm
14:00 71.7 °F /  22.1 °C 59.7 °F /  15.4 °C 29.93 in /  1013.4 hPa SE 4.6 mph /  7.4 km/h 8.1 mph /  13 km/h 66 % 0.00 in /  0 mm
14:05 71.3 °F /  21.8 °C 58.9 °F /  14.9 °C 29.93 in /  1013.4 hPa SE 2.5 mph /  4 km/h 5.8 mph /  9.3 km/h 65 % 0.00 in /  0 mm
14:10 70.9 °F /  21.6 °C 59.0 °F /  15 °C 29.93 in /  1013.4 hPa SSE 4.8 mph /  7.7 km/h 10.4 mph /  16.7 km/h 66 % 0.00 in /  0 mm
14:15 70.7 °F /  21.5 °C 60.0 °F /  15.6 °C 29.93 in /  1013.4 hPa SE 1.6 mph /  2.6 km/h 10.4 mph /  16.7 km/h 69 % 0.00 in /  0 mm
14:20 70.7 °F /  21.5 °C 60.0 °F /  15.6 °C 29.93 in /  1013.4 hPa South 1.2 mph /  1.9 km/h 5.8 mph /  9.3 km/h 69 % 0.00 in /  0 mm
14:25 70.8 °F /  21.6 °C 58.9 °F /  14.9 °C 29.93 in /  1013.4 hPa SSE 4.4 mph /  7.1 km/h 9.2 mph /  14.8 km/h 66 % 0.00 in /  0 mm
14:30 70.6 °F /  21.4 °C 58.3 °F /  14.6 °C 29.93 in /  1013.4 hPa SE 1.8 mph /  2.9 km/h 5.8 mph /  9.3 km/h 65 % 0.00 in /  0 mm
14:35 70.4 °F /  21.3 °C 57.6 °F /  14.2 °C 29.92 in /  1013.1 hPa SSE 3.9 mph /  6.3 km/h 9.2 mph /  14.8 km/h 64 % 0.00 in /  0 mm
14:40 70.1 °F /  21.2 °C 59.0 °F /  15 °C 29.93 in /  1013.4 hPa SE 0.6 mph /  1 km/h 5.0 mph /  8 km/h 68 % 0.00 in /  0 mm
14:45 70.1 °F /  21.2 °C 58.6 °F /  14.8 °C 29.92 in /  1013.1 hPa Calm   1.2 mph /  1.9 km/h 67 % 0.00 in /  0 mm
14:50 70.1 °F /  21.2 °C 58.2 °F /  14.6 °C 29.92 in /  1013.1 hPa SE 6.0 mph /  9.7 km/h 9.2 mph /  14.8 km/h 66 % 0.00 in /  0 mm
14:55 70.3 °F /  21.3 °C 59.6 °F /  15.3 °C 29.91 in /  1012.8 hPa SE 1.6 mph /  2.6 km/h 3.5 mph /  5.6 km/h 69 % 0.00 in /  0 mm
15:00 70.5 °F /  21.4 °C 59.0 °F /  15 °C 29.91 in /  1012.8 hPa SSE 0.9 mph /  1.4 km/h 2.3 mph /  3.7 km/h 67 % 0.00 in /  0 mm
15:05 70.6 °F /  21.4 °C 59.1 °F /  15.1 °C 29.91 in /  1012.8 hPa SSE 0.3 mph /  0.5 km/h 2.3 mph /  3.7 km/h 67 % 0.00 in /  0 mm
15:06 70.6 °F /  21.4 °C 58.3 °F /  14.6 °C 29.91 in /  1012.8 hPa SSE 0.2 mph /  0.3 km/h 2.3 mph /  3.7 km/h 65 % 0.00 in /  0 mm
15:11 70.8 °F /  21.6 °C 60.5 °F /  15.8 °C 29.91 in /  1012.8 hPa SSE 0.4 mph /  0.6 km/h 2.3 mph /  3.7 km/h 70 % 0.00 in /  0 mm
15:16 70.8 °F /  21.6 °C 58.4 °F /  14.7 °C 29.91 in /  1012.8 hPa SE 1.9 mph /  3.1 km/h 8.0 mph /  12.9 km/h 65 % 0.00 in /  0 mm
15:21 70.6 °F /  21.4 °C 58.7 °F /  14.8 °C 29.91 in /  1012.8 hPa SE 3.4 mph /  5.5 km/h 6.9 mph /  11.1 km/h 66 % 0.00 in /  0 mm
15:26 70.5 °F /  21.4 °C 58.2 °F /  14.6 °C 29.92 in /  1013.1 hPa SSE 1.3 mph /  2.1 km/h 4.6 mph /  7.4 km/h 65 % 0.00 in /  0 mm
15:31 70.1 °F /  21.2 °C 56.0 °F /  13.3 °C 29.91 in /  1012.8 hPa SE 5.2 mph /  8.4 km/h 9.2 mph /  14.8 km/h 61 % 0.00 in /  0 mm
15:36 69.7 °F /  20.9 °C 57.0 °F /  13.9 °C 29.91 in /  1012.8 hPa Calm   2.3 mph /  3.7 km/h 64 % 0.00 in /  0 mm
15:41 69.7 °F /  20.9 °C 57.4 °F /  14.1 °C 29.91 in /  1012.8 hPa South 3.2 mph /  5.1 km/h 6.9 mph /  11.1 km/h 65 % 0.00 in /  0 mm
15:46 69.3 °F /  20.7 °C 57.0 °F /  13.9 °C 29.91 in /  1012.8 hPa SE 0.6 mph /  1 km/h 5.0 mph /  8 km/h 65 % 0.00 in /  0 mm
15:50 69.0 °F /  20.6 °C 56.7 °F /  13.7 °C 29.91 in /  1012.8 hPa SE 3.8 mph /  6.1 km/h 7.0 mph /  11.3 km/h 65 % 0.00 in /  0 mm
15:55 68.8 °F /  20.4 °C 56.1 °F /  13.4 °C 29.91 in /  1012.8 hPa SSE 5.3 mph /  8.5 km/h 8.1 mph /  13 km/h 64 % 0.00 in /  0 mm
16:00 68.6 °F /  20.3 °C 56.4 °F /  13.6 °C 29.91 in /  1012.8 hPa SE 4.5 mph /  7.2 km/h 7.0 mph /  11.3 km/h 65 % 0.00 in /  0 mm
16:05 68.4 °F /  20.2 °C 55.7 °F /  13.2 °C 29.90 in /  1012.4 hPa SSE 1.9 mph /  3.1 km/h 9.2 mph /  14.8 km/h 64 % 0.00 in /  0 mm
16:10 68.4 °F /  20.2 °C 56.2 °F /  13.4 °C 29.91 in /  1012.8 hPa SE 3.0 mph /  4.8 km/h 7.0 mph /  11.3 km/h 65 % 0.00 in /  0 mm
16:15 68.5 °F /  20.3 °C 56.7 °F /  13.7 °C 29.91 in /  1012.8 hPa ESE 0.1 mph /  0.2 km/h 2.3 mph /  3.7 km/h 66 % 0.00 in /  0 mm
16:20 68.5 °F /  20.3 °C 55.0 °F /  12.8 °C 29.91 in /  1012.8 hPa SE 4.3 mph /  6.9 km/h 6.9 mph /  11.1 km/h 62 % 0.00 in /  0 mm
16:25 68.5 °F /  20.3 °C 54.5 °F /  12.5 °C 29.91 in /  1012.8 hPa SSE 4.6 mph /  7.4 km/h 9.2 mph /  14.8 km/h 61 % 0.00 in /  0 mm
16:30 68.1 °F /  20.1 °C 52.8 °F /  11.6 °C 29.91 in /  1012.8 hPa SE 1.4 mph /  2.3 km/h 8.1 mph /  13 km/h 58 % 0.00 in /  0 mm
16:35 67.9 °F /  19.9 °C 53.5 °F /  11.9 °C 29.90 in /  1012.4 hPa SE 2.3 mph /  3.7 km/h 3.5 mph /  5.6 km/h 60 % 0.00 in /  0 mm
16:40 67.9 °F /  19.9 °C 54.4 °F /  12.4 °C 29.90 in /  1012.4 hPa SSE 2.9 mph /  4.7 km/h 4.6 mph /  7.4 km/h 62 % 0.00 in /  0 mm
16:45 67.9 °F /  19.9 °C 53.5 °F /  11.9 °C 29.90 in /  1012.4 hPa SE 1.4 mph /  2.3 km/h 3.5 mph /  5.6 km/h 60 % 0.00 in /  0 mm
16:50 67.7 °F /  19.8 °C 53.3 °F /  11.8 °C 29.90 in /  1012.4 hPa ESE 3.1 mph /  5 km/h 8.1 mph /  13 km/h 60 % 0.00 in /  0 mm
16:55 67.5 °F /  19.7 °C 52.2 °F /  11.2 °C 29.91 in /  1012.8 hPa SE 5.9 mph /  9.5 km/h 11.5 mph /  18.5 km/h 58 % 0.00 in /  0 mm
17:00 67.3 °F /  19.6 °C 52.5 °F /  11.4 °C 29.91 in /  1012.8 hPa SE 2.2 mph /  3.5 km/h 6.0 mph /  9.7 km/h 59 % 0.00 in /  0 mm
17:06 67.2 °F /  19.6 °C 53.3 °F /  11.8 °C 29.91 in /  1012.8 hPa Calm   6.0 mph /  9.7 km/h 61 % 0.00 in /  0 mm
17:16 67.0 °F /  19.4 °C 53.5 °F /  11.9 °C 29.92 in /  1013.1 hPa SE 2.0 mph /  3.2 km/h 6.0 mph /  9.7 km/h 62 % 0.00 in /  0 mm
17:21 66.8 °F /  19.3 °C 53.4 °F /  11.9 °C 29.92 in /  1013.1 hPa SE 2.0 mph /  3.2 km/h 7.0 mph /  11.3 km/h 62 % 0.00 in /  0 mm
17:26 66.7 °F /  19.3 °C 54.1 °F /  12.3 °C 29.92 in /  1013.1 hPa SSE 1.0 mph /  1.6 km/h 8.0 mph /  12.9 km/h 64 % 0.00 in /  0 mm
17:31 66.5 °F /  19.2 °C 54.0 °F /  12.2 °C 29.92 in /  1013.1 hPa SE 2.0 mph /  3.2 km/h 9.0 mph /  14.5 km/h 64 % 0.00 in /  0 mm
17:36 66.3 °F /  19.1 °C 53.3 °F /  11.8 °C 29.92 in /  1013.1 hPa SSE 1.1 mph /  1.8 km/h 4.6 mph /  7.4 km/h 63 % 0.00 in /  0 mm
17:41 66.2 °F /  19 °C 54.5 °F /  12.5 °C 29.93 in /  1013.4 hPa SSE 0.3 mph /  0.5 km/h 2.3 mph /  3.7 km/h 66 % 0.00 in /  0 mm
17:46 66.1 °F /  18.9 °C 54.8 °F /  12.7 °C 29.92 in /  1013.1 hPa SE 1.7 mph /  2.7 km/h 4.0 mph /  6.4 km/h 67 % 0.00 in /  0 mm
17:51 66.0 °F /  18.9 °C 53.9 °F /  12.2 °C 29.93 in /  1013.4 hPa SE 1.2 mph /  1.9 km/h 4.6 mph /  7.4 km/h 65 % 0.00 in /  0 mm
17:56 65.8 °F /  18.8 °C 52.4 °F /  11.3 °C 29.92 in /  1013.1 hPa SE 5.2 mph /  8.4 km/h 8.1 mph /  13 km/h 62 % 0.00 in /  0 mm
18:02 65.6 °F /  18.7 °C 52.7 °F /  11.5 °C 29.92 in /  1013.1 hPa SE 1.5 mph /  2.4 km/h 5.8 mph /  9.3 km/h 63 % 0.00 in /  0 mm
18:07 65.5 °F /  18.6 °C 53.4 °F /  11.9 °C 29.93 in /  1013.4 hPa SE 3.6 mph /  5.8 km/h 6.0 mph /  9.7 km/h 65 % 0.00 in /  0 mm
18:12 65.3 °F /  18.5 °C 52.8 °F /  11.6 °C 29.93 in /  1013.4 hPa South 4.4 mph /  7.1 km/h 8.0 mph /  12.9 km/h 64 % 0.00 in /  0 mm
18:17 65.1 °F /  18.4 °C 52.6 °F /  11.4 °C 29.93 in /  1013.4 hPa SSE 2.2 mph /  3.5 km/h 4.6 mph /  7.4 km/h 64 % 0.00 in /  0 mm
18:22 64.9 °F /  18.3 °C 52.4 °F /  11.3 °C 29.93 in /  1013.4 hPa SSE 4.2 mph /  6.8 km/h 6.9 mph /  11.1 km/h 64 % 0.00 in /  0 mm
18:27 64.7 °F /  18.2 °C 52.2 °F /  11.2 °C 29.92 in /  1013.1 hPa SE 2.1 mph /  3.4 km/h 9.2 mph /  14.8 km/h 64 % 0.00 in /  0 mm
18:32 64.6 °F /  18.1 °C 52.1 °F /  11.2 °C 29.92 in /  1013.1 hPa SE 2.9 mph /  4.7 km/h 5.8 mph /  9.3 km/h 64 % 0.00 in /  0 mm
18:37 64.5 °F /  18.1 °C 52.5 °F /  11.4 °C 29.92 in /  1013.1 hPa SE 2.3 mph /  3.7 km/h 6.0 mph /  9.7 km/h 65 % 0.00 in /  0 mm
18:42 64.3 °F /  17.9 °C 52.3 °F /  11.3 °C 29.92 in /  1013.1 hPa SE 3.8 mph /  6.1 km/h 6.9 mph /  11.1 km/h 65 % 0.00 in /  0 mm
18:47 64.3 °F /  17.9 °C 52.7 °F /  11.5 °C 29.92 in /  1013.1 hPa ESE 3.6 mph /  5.8 km/h 8.1 mph /  13 km/h 66 % 0.00 in /  0 mm
18:52 64.1 °F /  17.8 °C 52.1 °F /  11.2 °C 29.92 in /  1013.1 hPa SE 1.5 mph /  2.4 km/h 3.5 mph /  5.6 km/h 65 % 0.00 in /  0 mm
18:57 64.0 °F /  17.8 °C 52.0 °F /  11.1 °C 29.92 in /  1013.1 hPa SE 1.5 mph /  2.4 km/h 4.6 mph /  7.4 km/h 65 % 0.00 in /  0 mm
19:02 64.0 °F /  17.8 °C 52.4 °F /  11.3 °C 29.92 in /  1013.1 hPa SE 1.8 mph /  2.9 km/h 4.0 mph /  6.4 km/h 66 % 0.00 in /  0 mm
19:07 63.8 °F /  17.7 °C 52.2 °F /  11.2 °C 29.92 in /  1013.1 hPa SSE 3.5 mph /  5.6 km/h 4.6 mph /  7.4 km/h 66 % 0.00 in /  0 mm
19:12 63.7 °F /  17.6 °C 52.1 °F /  11.2 °C 29.93 in /  1013.4 hPa SE 1.0 mph /  1.6 km/h 3.5 mph /  5.6 km/h 66 % 0.00 in /  0 mm
19:17 63.6 °F /  17.6 °C 52.4 °F /  11.3 °C 29.93 in /  1013.4 hPa SE 1.2 mph /  1.9 km/h 3.5 mph /  5.6 km/h 67 % 0.00 in /  0 mm
19:22 63.5 °F /  17.5 °C 51.9 °F /  11.1 °C 29.92 in /  1013.1 hPa SE 0.6 mph /  1 km/h 4.6 mph /  7.4 km/h 66 % 0.00 in /  0 mm
19:27 63.4 °F /  17.4 °C 52.7 °F /  11.5 °C 29.92 in /  1013.1 hPa SE 0.2 mph /  0.3 km/h 3.5 mph /  5.6 km/h 68 % 0.00 in /  0 mm
19:32 63.2 °F /  17.3 °C 52.1 °F /  11.2 °C 29.92 in /  1013.1 hPa SE 3.2 mph /  5.1 km/h 5.0 mph /  8 km/h 67 % 0.00 in /  0 mm
19:34 63.2 °F /  17.3 °C 52.5 °F /  11.4 °C 29.92 in /  1013.1 hPa ESE 1.6 mph /  2.6 km/h 4.6 mph /  7.4 km/h 68 % 0.00 in /  0 mm
19:39 63.0 °F /  17.2 °C 51.9 °F /  11.1 °C 29.92 in /  1013.1 hPa SE 0.5 mph /  0.8 km/h 5.8 mph /  9.3 km/h 67 % 0.00 in /  0 mm
19:44 62.8 °F /  17.1 °C 51.7 °F /  10.9 °C 29.93 in /  1013.4 hPa ESE 2.3 mph /  3.7 km/h 5.8 mph /  9.3 km/h 67 % 0.00 in /  0 mm
19:49 62.7 °F /  17.1 °C 51.6 °F /  10.9 °C 29.92 in /  1013.1 hPa SSE 0.7 mph /  1.1 km/h 4.6 mph /  7.4 km/h 67 % 0.00 in /  0 mm
19:54 62.6 °F /  17 °C 51.9 °F /  11.1 °C 29.92 in /  1013.1 hPa SE 1.6 mph /  2.6 km/h 8.0 mph /  12.9 km/h 68 % 0.00 in /  0 mm
19:59 62.4 °F /  16.9 °C 52.1 °F /  11.2 °C 29.92 in /  1013.1 hPa SE 0.5 mph /  0.8 km/h 4.6 mph /  7.4 km/h 69 % 0.00 in /  0 mm
20:04 62.3 °F /  16.8 °C 52.0 °F /  11.1 °C 29.92 in /  1013.1 hPa SE 0.2 mph /  0.3 km/h 1.2 mph /  1.9 km/h 69 % 0.00 in /  0 mm
20:09 62.2 °F /  16.8 °C 52.3 °F /  11.3 °C 29.92 in /  1013.1 hPa SE 3.3 mph /  5.3 km/h 4.6 mph /  7.4 km/h 70 % 0.00 in /  0 mm
20:14 62.1 °F /  16.7 °C 52.6 °F /  11.4 °C 29.92 in /  1013.1 hPa SE 0.4 mph /  0.6 km/h 2.3 mph /  3.7 km/h 71 % 0.00 in /  0 mm
20:19 61.9 °F /  16.6 °C 52.8 °F /  11.6 °C 29.92 in /  1013.1 hPa SE 0.3 mph /  0.5 km/h 2.3 mph /  3.7 km/h 72 % 0.00 in /  0 mm
20:24 61.8 °F /  16.6 °C 52.3 °F /  11.3 °C 29.92 in /  1013.1 hPa SE 0.1 mph /  0.2 km/h 1.2 mph /  1.9 km/h 71 % 0.00 in /  0 mm
20:34 61.6 °F /  16.4 °C 52.9 °F /  11.6 °C 29.92 in /  1013.1 hPa Calm     73 % 0.00 in /  0 mm
20:39 61.4 °F /  16.3 °C 52.3 °F /  11.3 °C 29.92 in /  1013.1 hPa Calm   3.5 mph /  5.6 km/h 72 % 0.00 in /  0 mm
20:44 61.3 °F /  16.3 °C 52.6 °F /  11.4 °C 29.92 in /  1013.1 hPa SE 0.1 mph /  0.2 km/h 3.5 mph /  5.6 km/h 73 % 0.00 in /  0 mm
20:49 61.2 °F /  16.2 °C 52.5 °F /  11.4 °C 29.91 in /  1012.8 hPa SE 2.0 mph /  3.2 km/h 4.6 mph /  7.4 km/h 73 % 0.00 in /  0 mm
20:54 61.1 °F /  16.2 °C 52.4 °F /  11.3 °C 29.91 in /  1012.8 hPa SE 0.8 mph /  1.3 km/h 3.5 mph /  5.6 km/h 73 % 0.00 in /  0 mm
20:59 60.9 °F /  16.1 °C 52.6 °F /  11.4 °C 29.91 in /  1012.8 hPa SE 1.4 mph /  2.3 km/h 4.0 mph /  6.4 km/h 74 % 0.00 in /  0 mm
21:04 60.8 °F /  16 °C 52.5 °F /  11.4 °C 29.91 in /  1012.8 hPa SSE 0.1 mph /  0.2 km/h 1.2 mph /  1.9 km/h 74 % 0.00 in /  0 mm
21:09 60.7 °F /  15.9 °C 52.4 °F /  11.3 °C 29.91 in /  1012.8 hPa SE 2.4 mph /  3.9 km/h 4.6 mph /  7.4 km/h 74 % 0.00 in /  0 mm
21:14 60.6 °F /  15.9 °C 52.6 °F /  11.4 °C 29.91 in /  1012.8 hPa Calm   1.2 mph /  1.9 km/h 75 % 0.00 in /  0 mm
21:19 60.5 °F /  15.8 °C 52.5 °F /  11.4 °C 29.92 in /  1013.1 hPa SE 0.2 mph /  0.3 km/h 3.5 mph /  5.6 km/h 75 % 0.00 in /  0 mm
21:25 60.4 °F /  15.8 °C 52.4 °F /  11.3 °C 29.92 in /  1013.1 hPa Calm     75 % 0.00 in /  0 mm
21:30 60.3 °F /  15.7 °C 52.7 °F /  11.5 °C 29.91 in /  1012.8 hPa SE 0.5 mph /  0.8 km/h 2.0 mph /  3.2 km/h 76 % 0.00 in /  0 mm
21:35 60.2 °F /  15.7 °C 52.6 °F /  11.4 °C 29.91 in /  1012.8 hPa SE 1.8 mph /  2.9 km/h 3.5 mph /  5.6 km/h 76 % 0.00 in /  0 mm
21:40 60.1 °F /  15.6 °C 52.9 °F /  11.6 °C 29.91 in /  1012.8 hPa SE 0.6 mph /  1 km/h 3.0 mph /  4.8 km/h 77 % 0.00 in /  0 mm
21:45 60.0 °F /  15.6 °C 53.1 °F /  11.7 °C 29.91 in /  1012.8 hPa Calm   1.2 mph /  1.9 km/h 78 % 0.00 in /  0 mm
21:50 59.9 °F /  15.5 °C 53.0 °F /  11.7 °C 29.91 in /  1012.8 hPa SE 1.1 mph /  1.8 km/h 3.5 mph /  5.6 km/h 78 % 0.00 in /  0 mm
21:55 59.8 °F /  15.4 °C 52.9 °F /  11.6 °C 29.91 in /  1012.8 hPa SE 0.1 mph /  0.2 km/h 3.5 mph /  5.6 km/h 78 % 0.00 in /  0 mm
22:00 59.8 °F /  15.4 °C 52.9 °F /  11.6 °C 29.91 in /  1012.8 hPa SSE 0.1 mph /  0.2 km/h 1.2 mph /  1.9 km/h 78 % 0.00 in /  0 mm
22:05 59.7 °F /  15.4 °C 53.2 °F /  11.8 °C 29.91 in /  1012.8 hPa Calm     79 % 0.00 in /  0 mm
22:10 59.7 °F /  15.4 °C 53.2 °F /  11.8 °C 29.90 in /  1012.4 hPa Calm     79 % 0.00 in /  0 mm
22:15 59.6 °F /  15.3 °C 53.4 °F /  11.9 °C 29.91 in /  1012.8 hPa Calm     80 % 0.00 in /  0 mm
22:20 59.6 °F /  15.3 °C 53.4 °F /  11.9 °C 29.90 in /  1012.4 hPa SE 1.1 mph /  1.8 km/h 3.5 mph /  5.6 km/h 80 % 0.00 in /  0 mm
22:25 59.6 °F /  15.3 °C 53.4 °F /  11.9 °C 29.90 in /  1012.4 hPa Calm   1.2 mph /  1.9 km/h 80 % 0.00 in /  0 mm
22:27 59.5 °F /  15.3 °C 53.3 °F /  11.8 °C 29.90 in /  1012.4 hPa Calm     80 % 0.00 in /  0 mm
22:32 59.5 °F /  15.3 °C 53.7 °F /  12.1 °C 29.90 in /  1012.4 hPa Calm   1.2 mph /  1.9 km/h 81 % 0.00 in /  0 mm
22:37 59.5 °F /  15.3 °C 53.3 °F /  11.8 °C 29.90 in /  1012.4 hPa SE 0.1 mph /  0.2 km/h 1.2 mph /  1.9 km/h 80 % 0.00 in /  0 mm
22:42 59.5 °F /  15.3 °C 53.3 °F /  11.8 °C 29.91 in /  1012.8 hPa Calm   1.2 mph /  1.9 km/h 80 % 0.00 in /  0 mm
22:47 59.5 °F /  15.3 °C 53.7 °F /  12.1 °C 29.91 in /  1012.8 hPa SE 0.7 mph /  1.1 km/h 3.5 mph /  5.6 km/h 81 % 0.00 in /  0 mm
22:52 59.4 °F /  15.2 °C 53.2 °F /  11.8 °C 29.91 in /  1012.8 hPa Calm   3.5 mph /  5.6 km/h 80 % 0.00 in /  0 mm
22:57 59.4 °F /  15.2 °C 53.6 °F /  12 °C 29.91 in /  1012.8 hPa ESE 0.7 mph /  1.1 km/h 4.0 mph /  6.4 km/h 81 % 0.00 in /  0 mm
23:02 59.4 °F /  15.2 °C 53.2 °F /  11.8 °C 29.91 in /  1012.8 hPa SE 1.8 mph /  2.9 km/h 5.8 mph /  9.3 km/h 80 % 0.00 in /  0 mm
23:07 59.4 °F /  15.2 °C 53.2 °F /  11.8 °C 29.90 in /  1012.4 hPa SSE 0.4 mph /  0.6 km/h 4.6 mph /  7.4 km/h 80 % 0.00 in /  0 mm
23:12 59.4 °F /  15.2 °C 53.2 °F /  11.8 °C 29.90 in /  1012.4 hPa SE 1.0 mph /  1.6 km/h 3.5 mph /  5.6 km/h 80 % 0.00 in /  0 mm
23:17 59.4 °F /  15.2 °C 53.2 °F /  11.8 °C 29.90 in /  1012.4 hPa SE 0.1 mph /  0.2 km/h 1.2 mph /  1.9 km/h 80 % 0.00 in /  0 mm
23:22 59.3 °F /  15.2 °C 53.5 °F /  11.9 °C 29.90 in /  1012.4 hPa SE 0.8 mph /  1.3 km/h 4.0 mph /  6.4 km/h 81 % 0.00 in /  0 mm
23:27 59.3 °F /  15.2 °C 53.5 °F /  11.9 °C 29.90 in /  1012.4 hPa Calm     81 % 0.00 in /  0 mm
23:32 59.3 °F /  15.2 °C 53.5 °F /  11.9 °C 29.90 in /  1012.4 hPa Calm     81 % 0.00 in /  0 mm
23:37 59.3 °F /  15.2 °C 53.5 °F /  11.9 °C 29.90 in /  1012.4 hPa SSE 0.1 mph /  0.2 km/h 1.2 mph /  1.9 km/h 81 % 0.00 in /  0 mm
23:42 59.3 °F /  15.2 °C 53.5 °F /  11.9 °C 29.90 in /  1012.4 hPa Calm   1.2 mph /  1.9 km/h 81 % 0.00 in /  0 mm
23:47 59.2 °F /  15.1 °C 53.7 °F /  12.1 °C 29.89 in /  1012.1 hPa Calm     82 % 0.00 in /  0 mm
23:49 59.3 °F /  15.2 °C 53.8 °F /  12.1 °C 29.89 in /  1012.1 hPa Calm     82 % 0.00 in /  0 mm
23:54 59.2 °F /  15.1 °C 53.4 °F /  11.9 °C 29.89 in /  1012.1 hPa SSE 0.1 mph /  0.2 km/h 1.2 mph /  1.9 km/h 81 % 0.00 in /  0 mm
23:59 59.2 °F /  15.1 °C 53.4 °F /  11.9 °C 29.89 in /  1012.1 hPa Calm   1.2 mph /  1.9 km/h 81 % 0.00 in /  0 mm
Crab Meadow Weather
Compliments of Weather Underground - 3 mb

Script developed by  Jim McMurry - jmcmurry@mwt.net Adapted for the template by  Wim van der Kuil - Leuven-Template.eu

Weather Terms: Hail - Precipitation in the form of lumps of ice that form during some thunderstorms.